sensor_id;sensor_type;location;lat;lon;timestamp;temperature;humidity
21568;DHT22;10944;42.590;12.630;2023-05-10T00:02:09;16.40;99.90
21568;DHT22;10944;42.590;12.630;2023-05-10T00:04:35;16.30;99.90
21568;DHT22;10944;42.590;12.630;2023-05-10T00:07:01;16.30;99.90
21568;DHT22;10944;42.590;12.630;2023-05-10T00:09:27;16.20;99.90
21568;DHT22;10944;42.590;12.630;2023-05-10T00:11:53;16.20;99.90
21568;DHT22;10944;42.590;12.630;2023-05-10T00:14:19;16.00;99.90
21568;DHT22;10944;42.590;12.630;2023-05-10T00:16:44;15.90;99.90
21568;DHT22;10944;42.590;12.630;2023-05-10T00:19:10;15.90;99.90
21568;DHT22;10944;42.590;12.630;2023-05-10T00:21:36;15.80;99.90
21568;DHT22;10944;42.590;12.630;2023-05-10T00:24:02;15.80;99.90
21568;DHT22;10944;42.590;12.630;2023-05-10T00:26:28;15.80;99.90
21568;DHT22;10944;42.590;12.630;2023-05-10T00:28:53;15.70;99.90
21568;DHT22;10944;42.590;12.630;2023-05-10T00:31:19;15.70;99.90
21568;DHT22;10944;42.590;12.630;2023-05-10T00:33:45;15.70;99.90
21568;DHT22;10944;42.590;12.630;2023-05-10T00:36:11;15.70;99.90
21568;DHT22;10944;42.590;12.630;2023-05-10T00:38:37;15.60;99.90
21568;DHT22;10944;42.590;12.630;2023-05-10T00:41:03;15.70;99.90
21568;DHT22;10944;42.590;12.630;2023-05-10T00:43:29;15.70;99.90
21568;DHT22;10944;42.590;12.630;2023-05-10T00:45:55;15.80;99.90
21568;DHT22;10944;42.590;12.630;2023-05-10T00:48:21;15.80;99.90
21568;DHT22;10944;42.590;12.630;2023-05-10T00:50:47;15.80;99.90
21568;DHT22;10944;42.590;12.630;2023-05-10T00:53:14;15.80;99.90
21568;DHT22;10944;42.590;12.630;2023-05-10T00:55:40;15.80;99.90
21568;DHT22;10944;42.590;12.630;2023-05-10T00:58:07;15.80;99.90
21568;DHT22;10944;42.590;12.630;2023-05-10T01:00:33;15.90;99.90
21568;DHT22;10944;42.590;12.630;2023-05-10T01:02:59;15.90;99.90
21568;DHT22;10944;42.590;12.630;2023-05-10T01:05:26;15.90;99.90
21568;DHT22;10944;42.590;12.630;2023-05-10T01:07:52;15.90;99.90
21568;DHT22;10944;42.590;12.630;2023-05-10T01:10:18;15.90;99.90
21568;DHT22;10944;42.590;12.630;2023-05-10T01:12:46;15.90;99.90
21568;DHT22;10944;42.590;12.630;2023-05-10T01:15:12;15.90;99.90
21568;DHT22;10944;42.590;12.630;2023-05-10T01:17:42;15.90;99.90
21568;DHT22;10944;42.590;12.630;2023-05-10T01:20:10;15.90;99.90
21568;DHT22;10944;42.590;12.630;2023-05-10T01:26:11;15.90;99.90
21568;DHT22;10944;42.590;12.630;2023-05-10T01:34:46;15.90;99.90
21568;DHT22;10944;42.590;12.630;2023-05-10T01:37:29;15.90;99.90
21568;DHT22;10944;42.590;12.630;2023-05-10T01:40:17;15.90;99.90
21568;DHT22;10944;42.590;12.630;2023-05-10T01:42:53;15.80;99.90
21568;DHT22;10944;42.590;12.630;2023-05-10T01:48:16;15.90;99.90
21568;DHT22;10944;42.590;12.630;2023-05-10T01:50:43;15.90;99.90
21568;DHT22;10944;42.590;12.630;2023-05-10T01:53:12;15.80;99.90
21568;DHT22;10944;42.590;12.630;2023-05-10T01:55:46;15.80;99.90
21568;DHT22;10944;42.590;12.630;2023-05-10T01:58:19;15.80;99.90
21568;DHT22;10944;42.590;12.630;2023-05-10T02:00:47;15.80;99.90
21568;DHT22;10944;42.590;12.630;2023-05-10T02:03:15;15.80;99.90
21568;DHT22;10944;42.590;12.630;2023-05-10T02:05:41;15.80;99.90
21568;DHT22;10944;42.590;12.630;2023-05-10T02:08:11;15.80;99.90
21568;DHT22;10944;42.590;12.630;2023-05-10T02:10:39;15.80;99.90
21568;DHT22;10944;42.590;12.630;2023-05-10T02:13:07;15.90;99.90
21568;DHT22;10944;42.590;12.630;2023-05-10T02:15:33;15.90;99.90
21568;DHT22;10944;42.590;12.630;2023-05-10T02:18:00;15.90;99.90
21568;DHT22;10944;42.590;12.630;2023-05-10T02:20:27;15.90;99.90
21568;DHT22;10944;42.590;12.630;2023-05-10T02:22:55;15.90;99.90
21568;DHT22;10944;42.590;12.630;2023-05-10T02:25:22;15.90;99.90
21568;DHT22;10944;42.590;12.630;2023-05-10T02:27:49;15.90;99.90
21568;DHT22;10944;42.590;12.630;2023-05-10T02:30:16;15.90;99.90
21568;DHT22;10944;42.590;12.630;2023-05-10T02:32:44;16.00;99.90
21568;DHT22;10944;42.590;12.630;2023-05-10T02:35:11;15.90;99.90
21568;DHT22;10944;42.590;12.630;2023-05-10T02:37:38;15.80;99.90
21568;DHT22;10944;42.590;12.630;2023-05-10T02:40:06;15.70;99.90
21568;DHT22;10944;42.590;12.630;2023-05-10T02:42:35;15.70;99.90
21568;DHT22;10944;42.590;12.630;2023-05-10T02:45:02;15.60;99.90
21568;DHT22;10944;42.590;12.630;2023-05-10T02:47:29;15.50;99.90
21568;DHT22;10944;42.590;12.630;2023-05-10T02:49:55;15.50;99.90
21568;DHT22;10944;42.590;12.630;2023-05-10T02:52:25;15.50;99.90
21568;DHT22;10944;42.590;12.630;2023-05-10T02:54:55;15.40;99.90
21568;DHT22;10944;42.590;12.630;2023-05-10T02:57:31;15.40;99.90
21568;DHT22;10944;42.590;12.630;2023-05-10T02:59:57;15.40;99.90
21568;DHT22;10944;42.590;12.630;2023-05-10T03:02:23;15.40;99.90
21568;DHT22;10944;42.590;12.630;2023-05-10T03:04:49;15.40;99.90
21568;DHT22;10944;42.590;12.630;2023-05-10T03:07:15;15.30;99.90
21568;DHT22;10944;42.590;12.630;2023-05-10T03:09:42;15.40;99.90
21568;DHT22;10944;42.590;12.630;2023-05-10T03:12:19;15.40;99.90
21568;DHT22;10944;42.590;12.630;2023-05-10T03:20:05;15.40;99.90
21568;DHT22;10944;42.590;12.630;2023-05-10T03:22:40;15.40;99.90
21568;DHT22;10944;42.590;12.630;2023-05-10T03:25:10;15.40;99.90
21568;DHT22;10944;42.590;12.630;2023-05-10T03:27:40;15.40;99.90
21568;DHT22;10944;42.590;12.630;2023-05-10T03:30:09;15.40;99.90
21568;DHT22;10944;42.590;12.630;2023-05-10T03:32:35;15.40;99.90
21568;DHT22;10944;42.590;12.630;2023-05-10T03:35:09;15.50;99.90
21568;DHT22;10944;42.590;12.630;2023-05-10T03:37:35;15.60;99.90
21568;DHT22;10944;42.590;12.630;2023-05-10T03:40:02;15.60;99.90
21568;DHT22;10944;42.590;12.630;2023-05-10T03:42:28;15.60;99.90
21568;DHT22;10944;42.590;12.630;2023-05-10T03:44:53;15.50;99.90
21568;DHT22;10944;42.590;12.630;2023-05-10T03:47:19;15.60;99.90
21568;DHT22;10944;42.590;12.630;2023-05-10T03:49:45;15.60;99.90
21568;DHT22;10944;42.590;12.630;2023-05-10T03:52:11;15.50;99.90
21568;DHT22;10944;42.590;12.630;2023-05-10T03:54:37;15.60;99.90
21568;DHT22;10944;42.590;12.630;2023-05-10T03:57:03;15.70;99.90
21568;DHT22;10944;42.590;12.630;2023-05-10T03:59:29;15.70;99.90
21568;DHT22;10944;42.590;12.630;2023-05-10T04:01:55;15.70;99.90
21568;DHT22;10944;42.590;12.630;2023-05-10T04:04:21;15.70;99.90
21568;DHT22;10944;42.590;12.630;2023-05-10T04:06:48;15.60;99.90
21568;DHT22;10944;42.590;12.630;2023-05-10T04:09:14;15.60;99.90
21568;DHT22;10944;42.590;12.630;2023-05-10T04:11:40;15.50;99.90
21568;DHT22;10944;42.590;12.630;2023-05-10T04:14:06;15.60;99.90
21568;DHT22;10944;42.590;12.630;2023-05-10T04:16:31;15.60;99.90
21568;DHT22;10944;42.590;12.630;2023-05-10T04:18:57;15.70;99.90
21568;DHT22;10944;42.590;12.630;2023-05-10T04:21:23;15.70;99.90
21568;DHT22;10944;42.590;12.630;2023-05-10T04:23:49;15.70;99.90
21568;DHT22;10944;42.590;12.630;2023-05-10T04:26:14;15.80;99.90
21568;DHT22;10944;42.590;12.630;2023-05-10T04:28:40;15.80;99.90
21568;DHT22;10944;42.590;12.630;2023-05-10T04:31:08;15.80;99.90
21568;DHT22;10944;42.590;12.630;2023-05-10T04:33:34;15.80;99.90
21568;DHT22;10944;42.590;12.630;2023-05-10T04:36:01;15.90;99.90
21568;DHT22;10944;42.590;12.630;2023-05-10T04:38:27;15.90;99.90
21568;DHT22;10944;42.590;12.630;2023-05-10T04:40:53;16.00;99.90
21568;DHT22;10944;42.590;12.630;2023-05-10T04:43:19;16.00;99.90
21568;DHT22;10944;42.590;12.630;2023-05-10T04:45:45;16.00;99.90
21568;DHT22;10944;42.590;12.630;2023-05-10T04:48:11;16.00;99.90
21568;DHT22;10944;42.590;12.630;2023-05-10T04:50:37;15.90;99.90
21568;DHT22;10944;42.590;12.630;2023-05-10T04:53:04;16.00;99.90
21568;DHT22;10944;42.590;12.630;2023-05-10T04:55:30;16.00;99.90
21568;DHT22;10944;42.590;12.630;2023-05-10T04:57:56;15.90;99.90
21568;DHT22;10944;42.590;12.630;2023-05-10T05:00:23;15.90;99.90
21568;DHT22;10944;42.590;12.630;2023-05-10T05:02:49;16.00;99.90
21568;DHT22;10944;42.590;12.630;2023-05-10T05:05:14;16.00;99.90
21568;DHT22;10944;42.590;12.630;2023-05-10T05:07:40;16.10;99.90
21568;DHT22;10944;42.590;12.630;2023-05-10T05:10:07;16.20;99.90
21568;DHT22;10944;42.590;12.630;2023-05-10T05:12:33;16.20;99.90
21568;DHT22;10944;42.590;12.630;2023-05-10T05:14:59;16.20;99.90
21568;DHT22;10944;42.590;12.630;2023-05-10T05:17:25;16.30;99.90
21568;DHT22;10944;42.590;12.630;2023-05-10T05:19:51;16.30;99.90
21568;DHT22;10944;42.590;12.630;2023-05-10T05:22:17;16.40;99.90
21568;DHT22;10944;42.590;12.630;2023-05-10T05:24:44;16.40;99.90
21568;DHT22;10944;42.590;12.630;2023-05-10T05:27:10;16.40;99.90
21568;DHT22;10944;42.590;12.630;2023-05-10T05:29:36;16.40;99.90
21568;DHT22;10944;42.590;12.630;2023-05-10T05:32:01;16.40;99.90
21568;DHT22;10944;42.590;12.630;2023-05-10T05:34:27;16.30;99.90
21568;DHT22;10944;42.590;12.630;2023-05-10T05:36:53;16.40;99.90
21568;DHT22;10944;42.590;12.630;2023-05-10T05:39:19;16.40;99.90
21568;DHT22;10944;42.590;12.630;2023-05-10T05:41:45;16.40;99.90
21568;DHT22;10944;42.590;12.630;2023-05-10T05:44:11;16.40;99.90
21568;DHT22;10944;42.590;12.630;2023-05-10T05:46:37;16.40;99.90
21568;DHT22;10944;42.590;12.630;2023-05-10T05:49:03;16.40;99.90
21568;DHT22;10944;42.590;12.630;2023-05-10T05:51:29;16.40;99.90
21568;DHT22;10944;42.590;12.630;2023-05-10T05:53:55;16.30;99.90
21568;DHT22;10944;42.590;12.630;2023-05-10T05:56:20;16.30;99.90
21568;DHT22;10944;42.590;12.630;2023-05-10T05:58:50;16.30;99.90
21568;DHT22;10944;42.590;12.630;2023-05-10T06:01:16;16.30;99.90
21568;DHT22;10944;42.590;12.630;2023-05-10T06:03:42;16.30;99.90
21568;DHT22;10944;42.590;12.630;2023-05-10T06:06:07;16.30;99.90
21568;DHT22;10944;42.590;12.630;2023-05-10T06:08:33;16.20;99.90
21568;DHT22;10944;42.590;12.630;2023-05-10T06:11:00;16.20;99.90
21568;DHT22;10944;42.590;12.630;2023-05-10T06:13:26;16.20;99.90
21568;DHT22;10944;42.590;12.630;2023-05-10T06:15:57;16.10;99.90
21568;DHT22;10944;42.590;12.630;2023-05-10T06:18:23;16.00;99.90
21568;DHT22;10944;42.590;12.630;2023-05-10T06:20:49;16.00;99.90
21568;DHT22;10944;42.590;12.630;2023-05-10T06:23:15;15.90;99.90
21568;DHT22;10944;42.590;12.630;2023-05-10T06:25:41;15.90;99.90
21568;DHT22;10944;42.590;12.630;2023-05-10T06:28:07;15.90;99.90
21568;DHT22;10944;42.590;12.630;2023-05-10T06:30:32;15.80;99.90
21568;DHT22;10944;42.590;12.630;2023-05-10T06:32:58;15.80;99.90
21568;DHT22;10944;42.590;12.630;2023-05-10T06:35:24;15.70;99.90
21568;DHT22;10944;42.590;12.630;2023-05-10T06:37:50;15.70;99.90
21568;DHT22;10944;42.590;12.630;2023-05-10T06:40:17;15.70;99.90
21568;DHT22;10944;42.590;12.630;2023-05-10T06:42:43;15.60;99.90
21568;DHT22;10944;42.590;12.630;2023-05-10T06:45:10;15.60;99.90
21568;DHT22;10944;42.590;12.630;2023-05-10T06:47:36;15.50;99.90
21568;DHT22;10944;42.590;12.630;2023-05-10T06:50:02;15.40;99.90
21568;DHT22;10944;42.590;12.630;2023-05-10T06:52:27;15.40;99.90
21568;DHT22;10944;42.590;12.630;2023-05-10T06:54:53;15.50;99.90
21568;DHT22;10944;42.590;12.630;2023-05-10T06:57:19;15.40;99.90
21568;DHT22;10944;42.590;12.630;2023-05-10T06:59:46;15.40;99.90
21568;DHT22;10944;42.590;12.630;2023-05-10T07:02:11;15.40;99.90
21568;DHT22;10944;42.590;12.630;2023-05-10T07:04:37;15.30;99.90
21568;DHT22;10944;42.590;12.630;2023-05-10T07:07:03;15.40;99.90
21568;DHT22;10944;42.590;12.630;2023-05-10T07:09:29;15.40;99.90
21568;DHT22;10944;42.590;12.630;2023-05-10T07:11:55;15.40;99.90
21568;DHT22;10944;42.590;12.630;2023-05-10T07:14:22;15.30;99.90
21568;DHT22;10944;42.590;12.630;2023-05-10T07:16:48;15.30;99.90
21568;DHT22;10944;42.590;12.630;2023-05-10T07:19:14;15.40;99.90
21568;DHT22;10944;42.590;12.630;2023-05-10T07:21:40;15.40;99.90
21568;DHT22;10944;42.590;12.630;2023-05-10T07:24:08;15.50;99.90
21568;DHT22;10944;42.590;12.630;2023-05-10T07:26:34;15.40;99.90
21568;DHT22;10944;42.590;12.630;2023-05-10T07:29:00;15.50;99.90
21568;DHT22;10944;42.590;12.630;2023-05-10T07:31:26;15.50;99.90
21568;DHT22;10944;42.590;12.630;2023-05-10T07:33:52;15.60;99.90
21568;DHT22;10944;42.590;12.630;2023-05-10T07:36:18;15.40;99.90
21568;DHT22;10944;42.590;12.630;2023-05-10T07:38:44;15.60;99.90
21568;DHT22;10944;42.590;12.630;2023-05-10T07:41:11;15.60;99.90
21568;DHT22;10944;42.590;12.630;2023-05-10T07:43:37;15.60;99.90
21568;DHT22;10944;42.590;12.630;2023-05-10T07:46:03;15.60;99.90
21568;DHT22;10944;42.590;12.630;2023-05-10T07:48:29;15.60;99.90
21568;DHT22;10944;42.590;12.630;2023-05-10T07:50:55;15.70;99.90
21568;DHT22;10944;42.590;12.630;2023-05-10T07:53:21;15.60;99.90
21568;DHT22;10944;42.590;12.630;2023-05-10T07:55:58;15.60;99.90
21568;DHT22;10944;42.590;12.630;2023-05-10T07:58:25;15.60;99.90
21568;DHT22;10944;42.590;12.630;2023-05-10T08:00:51;15.50;99.90
21568;DHT22;10944;42.590;12.630;2023-05-10T08:03:16;15.60;99.90
21568;DHT22;10944;42.590;12.630;2023-05-10T08:05:42;15.50;99.90
21568;DHT22;10944;42.590;12.630;2023-05-10T08:08:08;15.50;99.90
21568;DHT22;10944;42.590;12.630;2023-05-10T08:10:33;15.50;99.90
21568;DHT22;10944;42.590;12.630;2023-05-10T08:12:59;15.40;99.90
21568;DHT22;10944;42.590;12.630;2023-05-10T08:15:25;15.50;99.90
21568;DHT22;10944;42.590;12.630;2023-05-10T08:17:54;15.50;99.90
21568;DHT22;10944;42.590;12.630;2023-05-10T08:20:19;15.60;99.90
21568;DHT22;10944;42.590;12.630;2023-05-10T08:22:46;15.70;99.90
21568;DHT22;10944;42.590;12.630;2023-05-10T08:25:12;15.70;99.90
21568;DHT22;10944;42.590;12.630;2023-05-10T08:27:38;15.80;99.90
21568;DHT22;10944;42.590;12.630;2023-05-10T08:30:04;15.90;99.90
21568;DHT22;10944;42.590;12.630;2023-05-10T08:32:30;15.80;99.90
21568;DHT22;10944;42.590;12.630;2023-05-10T08:34:56;15.90;99.90
21568;DHT22;10944;42.590;12.630;2023-05-10T08:37:23;15.70;99.90
21568;DHT22;10944;42.590;12.630;2023-05-10T08:39:49;15.70;99.90
21568;DHT22;10944;42.590;12.630;2023-05-10T08:42:19;15.80;99.90
21568;DHT22;10944;42.590;12.630;2023-05-10T08:44:48;15.80;99.90
21568;DHT22;10944;42.590;12.630;2023-05-10T08:47:16;15.90;99.90
21568;DHT22;10944;42.590;12.630;2023-05-10T08:49:44;15.90;99.90
21568;DHT22;10944;42.590;12.630;2023-05-10T08:52:15;15.90;99.90
21568;DHT22;10944;42.590;12.630;2023-05-10T08:54:42;15.80;99.90
21568;DHT22;10944;42.590;12.630;2023-05-10T08:57:11;15.80;99.90
21568;DHT22;10944;42.590;12.630;2023-05-10T08:59:36;15.70;99.90
21568;DHT22;10944;42.590;12.630;2023-05-10T09:02:05;15.70;99.90
21568;DHT22;10944;42.590;12.630;2023-05-10T09:04:31;15.80;99.90
21568;DHT22;10944;42.590;12.630;2023-05-10T09:06:57;15.70;99.90
21568;DHT22;10944;42.590;12.630;2023-05-10T09:09:24;15.60;99.90
21568;DHT22;10944;42.590;12.630;2023-05-10T09:11:51;15.60;99.90
21568;DHT22;10944;42.590;12.630;2023-05-10T09:14:17;15.60;99.90
21568;DHT22;10944;42.590;12.630;2023-05-10T09:16:43;15.60;99.90
21568;DHT22;10944;42.590;12.630;2023-05-10T09:19:10;15.70;99.90
21568;DHT22;10944;42.590;12.630;2023-05-10T09:21:36;15.60;99.90
21568;DHT22;10944;42.590;12.630;2023-05-10T09:24:07;15.70;99.90
21568;DHT22;10944;42.590;12.630;2023-05-10T09:26:34;15.80;99.90
21568;DHT22;10944;42.590;12.630;2023-05-10T09:29:02;15.80;99.90
21568;DHT22;10944;42.590;12.630;2023-05-10T09:31:47;15.80;99.90
21568;DHT22;10944;42.590;12.630;2023-05-10T09:34:17;15.80;99.90
21568;DHT22;10944;42.590;12.630;2023-05-10T09:36:54;15.80;99.90
21568;DHT22;10944;42.590;12.630;2023-05-10T09:39:20;15.80;99.90
21568;DHT22;10944;42.590;12.630;2023-05-10T09:41:46;15.90;99.90
21568;DHT22;10944;42.590;12.630;2023-05-10T09:44:16;15.90;99.90
21568;DHT22;10944;42.590;12.630;2023-05-10T09:46:49;15.90;99.90
21568;DHT22;10944;42.590;12.630;2023-05-10T09:49:15;15.80;99.90
21568;DHT22;10944;42.590;12.630;2023-05-10T09:51:40;15.80;99.90
21568;DHT22;10944;42.590;12.630;2023-05-10T09:54:14;15.60;99.90
21568;DHT22;10944;42.590;12.630;2023-05-10T09:56:40;15.70;99.90
21568;DHT22;10944;42.590;12.630;2023-05-10T09:59:10;15.70;99.90
21568;DHT22;10944;42.590;12.630;2023-05-10T10:01:37;15.70;99.90
21568;DHT22;10944;42.590;12.630;2023-05-10T10:04:05;15.80;99.90
21568;DHT22;10944;42.590;12.630;2023-05-10T10:06:38;15.80;99.90
21568;DHT22;10944;42.590;12.630;2023-05-10T10:09:06;15.90;99.90
21568;DHT22;10944;42.590;12.630;2023-05-10T10:11:33;15.90;99.90
21568;DHT22;10944;42.590;12.630;2023-05-10T10:13:59;15.90;99.90
21568;DHT22;10944;42.590;12.630;2023-05-10T10:16:26;16.00;99.90
21568;DHT22;10944;42.590;12.630;2023-05-10T10:18:52;16.20;99.90
21568;DHT22;10944;42.590;12.630;2023-05-10T10:21:18;16.20;99.90
21568;DHT22;10944;42.590;12.630;2023-05-10T10:23:44;16.30;99.90
21568;DHT22;10944;42.590;12.630;2023-05-10T10:26:11;16.40;99.90
21568;DHT22;10944;42.590;12.630;2023-05-10T10:31:20;16.40;99.90
21568;DHT22;10944;42.590;12.630;2023-05-10T10:34:10;16.40;99.90
21568;DHT22;10944;42.590;12.630;2023-05-10T10:36:48;16.30;99.90
21568;DHT22;10944;42.590;12.630;2023-05-10T10:39:14;16.30;99.90
21568;DHT22;10944;42.590;12.630;2023-05-10T10:41:56;16.20;99.90
21568;DHT22;10944;42.590;12.630;2023-05-10T10:49:48;16.10;99.90
21568;DHT22;10944;42.590;12.630;2023-05-10T10:52:34;16.30;99.90
21568;DHT22;10944;42.590;12.630;2023-05-10T10:57:44;16.50;99.90
21568;DHT22;10944;42.590;12.630;2023-05-10T11:02:48;16.50;99.90
21568;DHT22;10944;42.590;12.630;2023-05-10T11:07:55;16.40;99.90
21568;DHT22;10944;42.590;12.630;2023-05-10T11:10:22;16.40;99.90
21568;DHT22;10944;42.590;12.630;2023-05-10T11:13:08;16.40;99.90
21568;DHT22;10944;42.590;12.630;2023-05-10T11:15:39;16.40;99.90
21568;DHT22;10944;42.590;12.630;2023-05-10T11:18:19;16.40;99.90
21568;DHT22;10944;42.590;12.630;2023-05-10T11:20:50;16.60;99.90
21568;DHT22;10944;42.590;12.630;2023-05-10T11:23:16;16.60;99.90
21568;DHT22;10944;42.590;12.630;2023-05-10T11:25:43;16.70;99.90
21568;DHT22;10944;42.590;12.630;2023-05-10T11:28:10;16.70;99.90
21568;DHT22;10944;42.590;12.630;2023-05-10T11:30:38;16.60;99.90
21568;DHT22;10944;42.590;12.630;2023-05-10T11:33:05;16.50;99.90
21568;DHT22;10944;42.590;12.630;2023-05-10T11:35:37;16.50;99.90
21568;DHT22;10944;42.590;12.630;2023-05-10T11:38:08;16.50;99.90
21568;DHT22;10944;42.590;12.630;2023-05-10T11:40:34;16.40;99.90
21568;DHT22;10944;42.590;12.630;2023-05-10T11:43:01;16.40;99.90
21568;DHT22;10944;42.590;12.630;2023-05-10T11:45:27;16.40;99.90
21568;DHT22;10944;42.590;12.630;2023-05-10T11:47:57;16.40;99.90
21568;DHT22;10944;42.590;12.630;2023-05-10T11:50:23;16.40;99.90
21568;DHT22;10944;42.590;12.630;2023-05-10T11:52:53;16.50;99.90
21568;DHT22;10944;42.590;12.630;2023-05-10T11:55:19;16.60;99.90
21568;DHT22;10944;42.590;12.630;2023-05-10T11:57:45;16.70;99.90
21568;DHT22;10944;42.590;12.630;2023-05-10T12:00:15;16.70;99.90
21568;DHT22;10944;42.590;12.630;2023-05-10T12:02:40;16.70;99.90
21568;DHT22;10944;42.590;12.630;2023-05-10T12:05:07;16.60;99.90
21568;DHT22;10944;42.590;12.630;2023-05-10T12:07:33;16.60;99.90
21568;DHT22;10944;42.590;12.630;2023-05-10T12:12:37;16.50;99.90
21568;DHT22;10944;42.590;12.630;2023-05-10T12:15:05;16.50;99.90
21568;DHT22;10944;42.590;12.630;2023-05-10T12:17:31;16.50;99.90
21568;DHT22;10944;42.590;12.630;2023-05-10T12:20:13;16.50;99.90
21568;DHT22;10944;42.590;12.630;2023-05-10T12:22:40;16.50;99.90
21568;DHT22;10944;42.590;12.630;2023-05-10T12:25:08;16.50;99.90
21568;DHT22;10944;42.590;12.630;2023-05-10T12:27:34;16.40;99.90
21568;DHT22;10944;42.590;12.630;2023-05-10T12:30:00;16.40;99.90
21568;DHT22;10944;42.590;12.630;2023-05-10T12:32:41;16.30;99.90
21568;DHT22;10944;42.590;12.630;2023-05-10T12:35:07;16.40;99.90
21568;DHT22;10944;42.590;12.630;2023-05-10T12:37:34;16.40;99.90
21568;DHT22;10944;42.590;12.630;2023-05-10T12:40:06;16.50;99.90
21568;DHT22;10944;42.590;12.630;2023-05-10T12:42:32;16.40;99.90
21568;DHT22;10944;42.590;12.630;2023-05-10T12:44:58;16.40;99.90
21568;DHT22;10944;42.590;12.630;2023-05-10T12:47:23;16.50;99.90
21568;DHT22;10944;42.590;12.630;2023-05-10T12:49:49;16.50;99.90
21568;DHT22;10944;42.590;12.630;2023-05-10T12:52:16;16.40;99.90
21568;DHT22;10944;42.590;12.630;2023-05-10T12:54:42;16.40;99.90
21568;DHT22;10944;42.590;12.630;2023-05-10T12:57:07;16.30;99.90
21568;DHT22;10944;42.590;12.630;2023-05-10T12:59:33;16.30;99.90
21568;DHT22;10944;42.590;12.630;2023-05-10T13:01:59;16.40;99.90
21568;DHT22;10944;42.590;12.630;2023-05-10T13:04:25;16.40;99.90
21568;DHT22;10944;42.590;12.630;2023-05-10T13:06:51;16.30;99.90
21568;DHT22;10944;42.590;12.630;2023-05-10T13:09:16;16.20;99.90
21568;DHT22;10944;42.590;12.630;2023-05-10T13:11:42;16.30;99.90
21568;DHT22;10944;42.590;12.630;2023-05-10T13:14:08;16.30;99.90
21568;DHT22;10944;42.590;12.630;2023-05-10T13:16:33;16.40;99.90
21568;DHT22;10944;42.590;12.630;2023-05-10T13:18:59;16.30;99.90
21568;DHT22;10944;42.590;12.630;2023-05-10T13:21:25;16.30;99.90
21568;DHT22;10944;42.590;12.630;2023-05-10T13:23:51;16.20;99.90
21568;DHT22;10944;42.590;12.630;2023-05-10T13:26:17;16.20;99.90
21568;DHT22;10944;42.590;12.630;2023-05-10T13:28:43;16.10;99.90
21568;DHT22;10944;42.590;12.630;2023-05-10T13:31:09;16.20;99.90
21568;DHT22;10944;42.590;12.630;2023-05-10T13:33:34;16.30;99.90
21568;DHT22;10944;42.590;12.630;2023-05-10T13:36:00;16.40;99.90
21568;DHT22;10944;42.590;12.630;2023-05-10T13:38:26;16.40;99.90
21568;DHT22;10944;42.590;12.630;2023-05-10T13:40:51;16.30;99.90
21568;DHT22;10944;42.590;12.630;2023-05-10T13:43:18;16.30;99.90
21568;DHT22;10944;42.590;12.630;2023-05-10T13:45:44;16.30;99.90
21568;DHT22;10944;42.590;12.630;2023-05-10T13:48:10;16.40;99.90
21568;DHT22;10944;42.590;12.630;2023-05-10T13:50:35;16.50;99.90
21568;DHT22;10944;42.590;12.630;2023-05-10T13:53:01;16.70;99.90
21568;DHT22;10944;42.590;12.630;2023-05-10T13:55:27;16.60;99.90
21568;DHT22;10944;42.590;12.630;2023-05-10T13:57:54;16.50;99.90
21568;DHT22;10944;42.590;12.630;2023-05-10T14:00:19;16.50;99.90
21568;DHT22;10944;42.590;12.630;2023-05-10T14:02:45;16.50;99.90
21568;DHT22;10944;42.590;12.630;2023-05-10T14:05:11;16.50;99.90
21568;DHT22;10944;42.590;12.630;2023-05-10T14:07:37;16.40;99.90
21568;DHT22;10944;42.590;12.630;2023-05-10T14:10:03;16.40;99.90
21568;DHT22;10944;42.590;12.630;2023-05-10T14:12:29;16.40;99.90
21568;DHT22;10944;42.590;12.630;2023-05-10T14:14:55;16.40;99.90
21568;DHT22;10944;42.590;12.630;2023-05-10T14:17:21;16.40;99.90
21568;DHT22;10944;42.590;12.630;2023-05-10T14:19:47;16.40;99.90
21568;DHT22;10944;42.590;12.630;2023-05-10T14:22:13;16.30;99.90
21568;DHT22;10944;42.590;12.630;2023-05-10T14:24:38;16.20;99.90
21568;DHT22;10944;42.590;12.630;2023-05-10T14:27:04;16.20;99.90
21568;DHT22;10944;42.590;12.630;2023-05-10T14:29:31;16.40;99.90
21568;DHT22;10944;42.590;12.630;2023-05-10T14:31:57;16.50;99.90
21568;DHT22;10944;42.590;12.630;2023-05-10T14:34:23;16.50;99.90
21568;DHT22;10944;42.590;12.630;2023-05-10T14:36:48;16.60;99.90
21568;DHT22;10944;42.590;12.630;2023-05-10T14:39:15;16.70;99.90
21568;DHT22;10944;42.590;12.630;2023-05-10T14:41:40;16.60;99.90
21568;DHT22;10944;42.590;12.630;2023-05-10T14:44:08;16.80;99.90
21568;DHT22;10944;42.590;12.630;2023-05-10T14:46:34;16.80;99.90
21568;DHT22;10944;42.590;12.630;2023-05-10T14:48:59;16.80;99.90
21568;DHT22;10944;42.590;12.630;2023-05-10T14:51:25;16.70;99.90
21568;DHT22;10944;42.590;12.630;2023-05-10T14:53:51;16.70;99.90
21568;DHT22;10944;42.590;12.630;2023-05-10T14:56:17;16.70;99.90
21568;DHT22;10944;42.590;12.630;2023-05-10T14:58:42;16.60;99.90
21568;DHT22;10944;42.590;12.630;2023-05-10T15:01:08;16.60;99.90
21568;DHT22;10944;42.590;12.630;2023-05-10T15:03:34;16.50;99.90
21568;DHT22;10944;42.590;12.630;2023-05-10T15:05:59;16.60;99.90
21568;DHT22;10944;42.590;12.630;2023-05-10T15:08:25;16.60;99.90
21568;DHT22;10944;42.590;12.630;2023-05-10T15:10:51;16.70;99.90
21568;DHT22;10944;42.590;12.630;2023-05-10T15:13:17;16.80;99.90
21568;DHT22;10944;42.590;12.630;2023-05-10T15:15:43;16.80;99.90
21568;DHT22;10944;42.590;12.630;2023-05-10T15:18:11;16.80;99.90
21568;DHT22;10944;42.590;12.630;2023-05-10T15:20:37;16.80;99.90
21568;DHT22;10944;42.590;12.630;2023-05-10T15:23:03;16.80;99.90
21568;DHT22;10944;42.590;12.630;2023-05-10T15:25:28;16.70;99.90
21568;DHT22;10944;42.590;12.630;2023-05-10T15:27:54;16.80;99.90
21568;DHT22;10944;42.590;12.630;2023-05-10T15:30:20;16.70;99.90
21568;DHT22;10944;42.590;12.630;2023-05-10T15:32:46;16.60;99.90
21568;DHT22;10944;42.590;12.630;2023-05-10T15:35:12;16.60;99.90
21568;DHT22;10944;42.590;12.630;2023-05-10T15:37:39;16.50;99.90
21568;DHT22;10944;42.590;12.630;2023-05-10T15:40:05;16.50;99.90
21568;DHT22;10944;42.590;12.630;2023-05-10T15:42:31;16.40;99.90
21568;DHT22;10944;42.590;12.630;2023-05-10T15:44:57;16.40;99.90
21568;DHT22;10944;42.590;12.630;2023-05-10T15:47:24;16.30;99.90
21568;DHT22;10944;42.590;12.630;2023-05-10T15:49:49;16.40;99.90
21568;DHT22;10944;42.590;12.630;2023-05-10T15:52:15;16.40;99.90